sensor_id;sensor_type;location;lat;lon;timestamp;temperature;humidity
20726;DHT22;10524;48.132;8.518;2023-02-01T00:01:46;1.30;99.90
20726;DHT22;10524;48.132;8.518;2023-02-01T00:04:12;1.30;99.90
20726;DHT22;10524;48.132;8.518;2023-02-01T00:06:38;1.30;99.90
20726;DHT22;10524;48.132;8.518;2023-02-01T00:09:03;1.30;99.90
20726;DHT22;10524;48.132;8.518;2023-02-01T00:11:29;1.30;99.90
20726;DHT22;10524;48.132;8.518;2023-02-01T00:13:55;1.30;99.90
20726;DHT22;10524;48.132;8.518;2023-02-01T00:16:24;1.30;99.90
20726;DHT22;10524;48.132;8.518;2023-02-01T00:18:51;1.30;99.90
20726;DHT22;10524;48.132;8.518;2023-02-01T00:21:20;1.30;99.90
20726;DHT22;10524;48.132;8.518;2023-02-01T00:23:46;1.30;99.90
20726;DHT22;10524;48.132;8.518;2023-02-01T00:26:35;1.30;99.90
20726;DHT22;10524;48.132;8.518;2023-02-01T00:29:03;1.30;99.90
20726;DHT22;10524;48.132;8.518;2023-02-01T00:31:29;1.30;99.90
20726;DHT22;10524;48.132;8.518;2023-02-01T00:33:54;1.30;99.90
20726;DHT22;10524;48.132;8.518;2023-02-01T00:36:20;1.20;99.90
20726;DHT22;10524;48.132;8.518;2023-02-01T00:38:46;1.20;99.90
20726;DHT22;10524;48.132;8.518;2023-02-01T00:41:15;1.30;99.90
20726;DHT22;10524;48.132;8.518;2023-02-01T00:43:41;1.20;99.90
20726;DHT22;10524;48.132;8.518;2023-02-01T00:46:07;1.20;99.90
20726;DHT22;10524;48.132;8.518;2023-02-01T00:48:33;1.20;99.90
20726;DHT22;10524;48.132;8.518;2023-02-01T00:51:04;1.20;99.90
20726;DHT22;10524;48.132;8.518;2023-02-01T00:53:30;1.20;99.90
20726;DHT22;10524;48.132;8.518;2023-02-01T00:55:56;1.20;99.90
20726;DHT22;10524;48.132;8.518;2023-02-01T00:58:22;1.20;99.90
20726;DHT22;10524;48.132;8.518;2023-02-01T01:03:51;1.20;99.90
20726;DHT22;10524;48.132;8.518;2023-02-01T01:06:20;1.10;99.90
20726;DHT22;10524;48.132;8.518;2023-02-01T01:08:46;1.10;99.90
20726;DHT22;10524;48.132;8.518;2023-02-01T01:11:15;1.10;99.90
20726;DHT22;10524;48.132;8.518;2023-02-01T01:13:42;1.20;99.90
20726;DHT22;10524;48.132;8.518;2023-02-01T01:16:09;1.20;99.90
20726;DHT22;10524;48.132;8.518;2023-02-01T01:18:36;1.20;99.90
20726;DHT22;10524;48.132;8.518;2023-02-01T01:21:03;1.20;99.90
20726;DHT22;10524;48.132;8.518;2023-02-01T01:23:29;1.20;99.90
20726;DHT22;10524;48.132;8.518;2023-02-01T01:25:55;1.20;99.90
20726;DHT22;10524;48.132;8.518;2023-02-01T01:28:20;1.20;99.90
20726;DHT22;10524;48.132;8.518;2023-02-01T01:30:46;1.20;99.90
20726;DHT22;10524;48.132;8.518;2023-02-01T01:33:12;1.20;99.90
20726;DHT22;10524;48.132;8.518;2023-02-01T01:35:37;1.20;99.90
20726;DHT22;10524;48.132;8.518;2023-02-01T01:38:03;1.20;99.90
20726;DHT22;10524;48.132;8.518;2023-02-01T01:40:29;1.30;99.90
20726;DHT22;10524;48.132;8.518;2023-02-01T01:42:56;1.30;99.90
20726;DHT22;10524;48.132;8.518;2023-02-01T01:45:23;1.20;99.90
20726;DHT22;10524;48.132;8.518;2023-02-01T01:47:53;1.20;99.90
20726;DHT22;10524;48.132;8.518;2023-02-01T01:50:27;1.20;99.90
20726;DHT22;10524;48.132;8.518;2023-02-01T01:52:55;1.20;99.90
20726;DHT22;10524;48.132;8.518;2023-02-01T01:55:23;1.20;99.90
20726;DHT22;10524;48.132;8.518;2023-02-01T01:58:08;1.20;99.90
20726;DHT22;10524;48.132;8.518;2023-02-01T02:00:34;1.20;99.90
20726;DHT22;10524;48.132;8.518;2023-02-01T02:03:25;1.20;99.90
20726;DHT22;10524;48.132;8.518;2023-02-01T02:05:54;1.20;99.90
20726;DHT22;10524;48.132;8.518;2023-02-01T02:08:21;1.20;99.90
20726;DHT22;10524;48.132;8.518;2023-02-01T02:10:48;1.20;99.90
20726;DHT22;10524;48.132;8.518;2023-02-01T02:19:22;1.30;99.90
20726;DHT22;10524;48.132;8.518;2023-02-01T02:30:19;1.30;99.90
20726;DHT22;10524;48.132;8.518;2023-02-01T02:35:59;1.20;99.90
20726;DHT22;10524;48.132;8.518;2023-02-01T02:47:44;1.30;99.90
20726;DHT22;10524;48.132;8.518;2023-02-01T02:53:34;1.20;99.90
20726;DHT22;10524;48.132;8.518;2023-02-01T02:56:21;1.20;99.90
20726;DHT22;10524;48.132;8.518;2023-02-01T02:59:09;1.20;99.90
20726;DHT22;10524;48.132;8.518;2023-02-01T03:01:54;1.30;99.90
20726;DHT22;10524;48.132;8.518;2023-02-01T03:04:38;1.20;99.90
20726;DHT22;10524;48.132;8.518;2023-02-01T03:10:18;1.20;99.90
20726;DHT22;10524;48.132;8.518;2023-02-01T03:12:46;1.20;99.90
20726;DHT22;10524;48.132;8.518;2023-02-01T03:21:18;1.20;99.90
20726;DHT22;10524;48.132;8.518;2023-02-01T03:23:47;1.20;99.90
20726;DHT22;10524;48.132;8.518;2023-02-01T03:26:15;1.20;99.90
20726;DHT22;10524;48.132;8.518;2023-02-01T03:28:48;1.20;99.90
20726;DHT22;10524;48.132;8.518;2023-02-01T03:31:15;1.20;99.90
20726;DHT22;10524;48.132;8.518;2023-02-01T03:33:41;1.20;99.90
20726;DHT22;10524;48.132;8.518;2023-02-01T03:36:17;1.20;99.90
20726;DHT22;10524;48.132;8.518;2023-02-01T03:41:23;1.20;99.90
20726;DHT22;10524;48.132;8.518;2023-02-01T03:43:52;1.30;99.90
20726;DHT22;10524;48.132;8.518;2023-02-01T03:49:31;1.30;99.90
20726;DHT22;10524;48.132;8.518;2023-02-01T03:51:59;1.30;99.90
20726;DHT22;10524;48.132;8.518;2023-02-01T03:54:27;1.30;99.90
20726;DHT22;10524;48.132;8.518;2023-02-01T03:56:56;1.30;99.90
20726;DHT22;10524;48.132;8.518;2023-02-01T03:59:23;1.30;99.90
20726;DHT22;10524;48.132;8.518;2023-02-01T04:01:49;1.30;99.90
20726;DHT22;10524;48.132;8.518;2023-02-01T04:04:15;1.30;99.90
20726;DHT22;10524;48.132;8.518;2023-02-01T04:06:47;1.30;99.90
20726;DHT22;10524;48.132;8.518;2023-02-01T04:09:13;1.30;99.90
20726;DHT22;10524;48.132;8.518;2023-02-01T04:11:39;1.30;99.90
20726;DHT22;10524;48.132;8.518;2023-02-01T04:14:04;1.30;99.90
20726;DHT22;10524;48.132;8.518;2023-02-01T04:16:33;1.30;99.90
20726;DHT22;10524;48.132;8.518;2023-02-01T04:18:59;1.40;99.90
20726;DHT22;10524;48.132;8.518;2023-02-01T04:21:26;1.40;99.90
20726;DHT22;10524;48.132;8.518;2023-02-01T04:23:52;1.40;99.90
20726;DHT22;10524;48.132;8.518;2023-02-01T04:26:18;1.30;99.90
20726;DHT22;10524;48.132;8.518;2023-02-01T04:28:44;1.30;99.90
20726;DHT22;10524;48.132;8.518;2023-02-01T04:31:16;1.30;99.90
20726;DHT22;10524;48.132;8.518;2023-02-01T04:33:43;1.30;99.90
20726;DHT22;10524;48.132;8.518;2023-02-01T04:36:09;1.30;99.90
20726;DHT22;10524;48.132;8.518;2023-02-01T04:38:34;1.30;99.90
20726;DHT22;10524;48.132;8.518;2023-02-01T04:41:00;1.30;99.90
20726;DHT22;10524;48.132;8.518;2023-02-01T04:43:26;1.30;99.90
20726;DHT22;10524;48.132;8.518;2023-02-01T04:45:52;1.30;99.90
20726;DHT22;10524;48.132;8.518;2023-02-01T04:48:20;1.40;99.90
20726;DHT22;10524;48.132;8.518;2023-02-01T04:50:46;1.40;99.90
20726;DHT22;10524;48.132;8.518;2023-02-01T04:53:14;1.40;99.90
20726;DHT22;10524;48.132;8.518;2023-02-01T04:55:41;1.40;99.90
20726;DHT22;10524;48.132;8.518;2023-02-01T04:58:07;1.40;99.90
20726;DHT22;10524;48.132;8.518;2023-02-01T05:00:33;1.40;99.90
20726;DHT22;10524;48.132;8.518;2023-02-01T05:02:59;1.40;99.90
20726;DHT22;10524;48.132;8.518;2023-02-01T05:05:25;1.40;99.90
20726;DHT22;10524;48.132;8.518;2023-02-01T05:07:50;1.40;99.90
20726;DHT22;10524;48.132;8.518;2023-02-01T05:10:16;1.40;99.90
20726;DHT22;10524;48.132;8.518;2023-02-01T05:12:43;1.30;99.90
20726;DHT22;10524;48.132;8.518;2023-02-01T05:15:28;1.40;99.90
20726;DHT22;10524;48.132;8.518;2023-02-01T05:17:54;1.40;99.90
20726;DHT22;10524;48.132;8.518;2023-02-01T05:20:21;1.40;99.90
20726;DHT22;10524;48.132;8.518;2023-02-01T05:22:47;1.40;99.90
20726;DHT22;10524;48.132;8.518;2023-02-01T05:25:12;1.40;99.90
20726;DHT22;10524;48.132;8.518;2023-02-01T05:27:38;1.40;99.90
20726;DHT22;10524;48.132;8.518;2023-02-01T05:30:05;1.40;99.90
20726;DHT22;10524;48.132;8.518;2023-02-01T05:32:30;1.50;99.90
20726;DHT22;10524;48.132;8.518;2023-02-01T05:34:56;1.50;99.90
20726;DHT22;10524;48.132;8.518;2023-02-01T05:37:22;1.40;99.90
20726;DHT22;10524;48.132;8.518;2023-02-01T05:39:47;1.50;99.90
20726;DHT22;10524;48.132;8.518;2023-02-01T05:42:13;1.40;99.90
20726;DHT22;10524;48.132;8.518;2023-02-01T05:44:39;1.40;99.90
20726;DHT22;10524;48.132;8.518;2023-02-01T05:47:05;1.40;99.90
20726;DHT22;10524;48.132;8.518;2023-02-01T05:49:31;1.40;99.90
20726;DHT22;10524;48.132;8.518;2023-02-01T05:51:56;1.40;99.90
20726;DHT22;10524;48.132;8.518;2023-02-01T05:54:22;1.40;99.90
20726;DHT22;10524;48.132;8.518;2023-02-01T05:56:47;1.40;99.90
20726;DHT22;10524;48.132;8.518;2023-02-01T05:59:13;1.40;99.90
20726;DHT22;10524;48.132;8.518;2023-02-01T06:01:38;1.40;99.90
20726;DHT22;10524;48.132;8.518;2023-02-01T06:04:04;1.50;99.90
20726;DHT22;10524;48.132;8.518;2023-02-01T06:06:30;1.50;99.90
20726;DHT22;10524;48.132;8.518;2023-02-01T06:08:55;1.50;99.90
20726;DHT22;10524;48.132;8.518;2023-02-01T06:11:21;1.50;99.90
20726;DHT22;10524;48.132;8.518;2023-02-01T06:13:47;1.50;99.90
20726;DHT22;10524;48.132;8.518;2023-02-01T06:16:12;1.50;99.90
20726;DHT22;10524;48.132;8.518;2023-02-01T06:18:41;1.50;99.90
20726;DHT22;10524;48.132;8.518;2023-02-01T06:21:06;1.50;99.90
20726;DHT22;10524;48.132;8.518;2023-02-01T06:23:32;1.50;99.90
20726;DHT22;10524;48.132;8.518;2023-02-01T06:26:03;1.50;99.90
20726;DHT22;10524;48.132;8.518;2023-02-01T06:28:31;1.40;99.90
20726;DHT22;10524;48.132;8.518;2023-02-01T06:31:02;1.40;99.90
20726;DHT22;10524;48.132;8.518;2023-02-01T06:33:27;1.40;99.90
20726;DHT22;10524;48.132;8.518;2023-02-01T06:35:58;1.40;99.90
20726;DHT22;10524;48.132;8.518;2023-02-01T06:38:24;1.40;99.90
20726;DHT22;10524;48.132;8.518;2023-02-01T06:40:55;1.40;99.90
20726;DHT22;10524;48.132;8.518;2023-02-01T06:43:25;1.30;99.90
20726;DHT22;10524;48.132;8.518;2023-02-01T06:45:51;1.20;99.90
20726;DHT22;10524;48.132;8.518;2023-02-01T06:48:17;1.20;99.90
20726;DHT22;10524;48.132;8.518;2023-02-01T06:50:43;1.30;99.90
20726;DHT22;10524;48.132;8.518;2023-02-01T06:53:09;1.30;99.90
20726;DHT22;10524;48.132;8.518;2023-02-01T06:55:35;1.30;99.90
20726;DHT22;10524;48.132;8.518;2023-02-01T06:58:01;1.40;99.90
20726;DHT22;10524;48.132;8.518;2023-02-01T07:00:28;1.40;99.90
20726;DHT22;10524;48.132;8.518;2023-02-01T07:02:54;1.30;99.90
20726;DHT22;10524;48.132;8.518;2023-02-01T07:05:20;1.40;99.90
20726;DHT22;10524;48.132;8.518;2023-02-01T07:07:46;1.40;99.90
20726;DHT22;10524;48.132;8.518;2023-02-01T07:10:12;1.40;99.90
20726;DHT22;10524;48.132;8.518;2023-02-01T07:12:38;1.30;99.90
20726;DHT22;10524;48.132;8.518;2023-02-01T07:15:04;1.30;99.90
20726;DHT22;10524;48.132;8.518;2023-02-01T07:17:30;1.30;99.90
20726;DHT22;10524;48.132;8.518;2023-02-01T07:19:56;1.30;99.90
20726;DHT22;10524;48.132;8.518;2023-02-01T07:22:24;1.40;99.90
20726;DHT22;10524;48.132;8.518;2023-02-01T07:24:49;1.50;99.90
20726;DHT22;10524;48.132;8.518;2023-02-01T07:27:15;1.60;99.90
20726;DHT22;10524;48.132;8.518;2023-02-01T07:29:40;1.60;99.90
20726;DHT22;10524;48.132;8.518;2023-02-01T07:32:06;1.60;99.90
20726;DHT22;10524;48.132;8.518;2023-02-01T07:34:31;1.60;99.90
20726;DHT22;10524;48.132;8.518;2023-02-01T07:36:58;1.60;99.90
20726;DHT22;10524;48.132;8.518;2023-02-01T07:39:23;1.60;99.90
20726;DHT22;10524;48.132;8.518;2023-02-01T07:41:49;1.70;99.90
20726;DHT22;10524;48.132;8.518;2023-02-01T07:44:15;1.70;99.90
20726;DHT22;10524;48.132;8.518;2023-02-01T07:46:42;1.70;99.90
20726;DHT22;10524;48.132;8.518;2023-02-01T07:49:08;1.90;99.90
20726;DHT22;10524;48.132;8.518;2023-02-01T07:51:34;2.10;99.90
20726;DHT22;10524;48.132;8.518;2023-02-01T07:54:00;2.30;99.90
20726;DHT22;10524;48.132;8.518;2023-02-01T07:56:25;2.40;99.90
20726;DHT22;10524;48.132;8.518;2023-02-01T07:58:53;2.50;99.90
20726;DHT22;10524;48.132;8.518;2023-02-01T08:01:24;2.50;99.90
20726;DHT22;10524;48.132;8.518;2023-02-01T08:03:56;2.60;99.90
20726;DHT22;10524;48.132;8.518;2023-02-01T08:06:23;2.60;99.90
20726;DHT22;10524;48.132;8.518;2023-02-01T08:08:49;2.60;99.90
20726;DHT22;10524;48.132;8.518;2023-02-01T08:11:16;2.60;99.90
20726;DHT22;10524;48.132;8.518;2023-02-01T08:13:43;2.60;99.90
20726;DHT22;10524;48.132;8.518;2023-02-01T08:16:10;2.60;99.90
20726;DHT22;10524;48.132;8.518;2023-02-01T08:18:37;2.70;99.90
20726;DHT22;10524;48.132;8.518;2023-02-01T08:21:14;2.70;99.90
20726;DHT22;10524;48.132;8.518;2023-02-01T08:23:41;2.80;99.90
20726;DHT22;10524;48.132;8.518;2023-02-01T08:26:20;2.80;99.90
20726;DHT22;10524;48.132;8.518;2023-02-01T08:28:52;2.70;99.90
20726;DHT22;10524;48.132;8.518;2023-02-01T08:31:19;2.60;99.90
20726;DHT22;10524;48.132;8.518;2023-02-01T08:33:50;2.60;99.90
20726;DHT22;10524;48.132;8.518;2023-02-01T08:36:16;2.40;99.90
20726;DHT22;10524;48.132;8.518;2023-02-01T08:38:42;2.40;99.90
20726;DHT22;10524;48.132;8.518;2023-02-01T08:41:10;2.40;99.90
20726;DHT22;10524;48.132;8.518;2023-02-01T08:43:36;2.30;99.90
20726;DHT22;10524;48.132;8.518;2023-02-01T08:46:03;2.30;99.90
20726;DHT22;10524;48.132;8.518;2023-02-01T08:48:29;2.30;99.90
20726;DHT22;10524;48.132;8.518;2023-02-01T08:50:55;2.30;99.90
20726;DHT22;10524;48.132;8.518;2023-02-01T08:53:20;2.40;99.90
20726;DHT22;10524;48.132;8.518;2023-02-01T08:55:47;2.60;99.90
20726;DHT22;10524;48.132;8.518;2023-02-01T08:58:13;2.70;99.90
20726;DHT22;10524;48.132;8.518;2023-02-01T09:00:43;3.00;99.90
20726;DHT22;10524;48.132;8.518;2023-02-01T09:03:13;3.70;99.90
20726;DHT22;10524;48.132;8.518;2023-02-01T09:05:39;4.30;99.90
20726;DHT22;10524;48.132;8.518;2023-02-01T09:08:04;4.60;99.90
20726;DHT22;10524;48.132;8.518;2023-02-01T09:10:30;4.90;99.90
20726;DHT22;10524;48.132;8.518;2023-02-01T09:12:58;5.70;99.90
20726;DHT22;10524;48.132;8.518;2023-02-01T09:15:24;6.40;99.90
20726;DHT22;10524;48.132;8.518;2023-02-01T09:17:51;7.50;99.90
20726;DHT22;10524;48.132;8.518;2023-02-01T09:20:17;7.50;99.90
20726;DHT22;10524;48.132;8.518;2023-02-01T09:22:45;6.70;99.90
20726;DHT22;10524;48.132;8.518;2023-02-01T09:25:11;6.00;99.90
20726;DHT22;10524;48.132;8.518;2023-02-01T09:27:39;5.50;99.90
20726;DHT22;10524;48.132;8.518;2023-02-01T09:30:04;4.90;99.90
20726;DHT22;10524;48.132;8.518;2023-02-01T09:32:30;4.40;99.90
20726;DHT22;10524;48.132;8.518;2023-02-01T09:34:56;4.10;99.90
20726;DHT22;10524;48.132;8.518;2023-02-01T09:37:22;3.80;99.90
20726;DHT22;10524;48.132;8.518;2023-02-01T09:39:47;3.60;99.90
20726;DHT22;10524;48.132;8.518;2023-02-01T09:42:31;3.60;99.90
20726;DHT22;10524;48.132;8.518;2023-02-01T09:45:17;3.60;99.90
20726;DHT22;10524;48.132;8.518;2023-02-01T09:47:57;3.50;99.90
20726;DHT22;10524;48.132;8.518;2023-02-01T09:50:35;3.40;99.90
20726;DHT22;10524;48.132;8.518;2023-02-01T09:53:15;3.40;99.90
20726;DHT22;10524;48.132;8.518;2023-02-01T09:55:45;3.30;99.90
20726;DHT22;10524;48.132;8.518;2023-02-01T09:58:28;3.30;99.90
20726;DHT22;10524;48.132;8.518;2023-02-01T10:00:58;3.30;99.90
20726;DHT22;10524;48.132;8.518;2023-02-01T10:03:27;3.40;99.90
20726;DHT22;10524;48.132;8.518;2023-02-01T10:09:08;3.40;99.90
20726;DHT22;10524;48.132;8.518;2023-02-01T10:11:39;3.50;99.90
20726;DHT22;10524;48.132;8.518;2023-02-01T10:25:21;3.60;99.90
20726;DHT22;10524;48.132;8.518;2023-02-01T10:27:49;3.60;99.90
20726;DHT22;10524;48.132;8.518;2023-02-01T10:30:25;3.50;99.90
20726;DHT22;10524;48.132;8.518;2023-02-01T10:32:56;3.70;99.90
20726;DHT22;10524;48.132;8.518;2023-02-01T10:35:30;3.90;99.90
20726;DHT22;10524;48.132;8.518;2023-02-01T10:38:01;3.90;99.90
20726;DHT22;10524;48.132;8.518;2023-02-01T10:40:28;3.90;99.90
20726;DHT22;10524;48.132;8.518;2023-02-01T10:43:01;3.90;99.90
20726;DHT22;10524;48.132;8.518;2023-02-01T10:45:29;3.80;99.90
20726;DHT22;10524;48.132;8.518;2023-02-01T10:47:57;3.90;99.90
20726;DHT22;10524;48.132;8.518;2023-02-01T10:50:39;3.80;99.90
20726;DHT22;10524;48.132;8.518;2023-02-01T10:53:18;3.70;99.90
20726;DHT22;10524;48.132;8.518;2023-02-01T10:58:19;3.90;99.90
20726;DHT22;10524;48.132;8.518;2023-02-01T11:00:56;3.80;99.90
20726;DHT22;10524;48.132;8.518;2023-02-01T11:03:43;3.90;99.90
20726;DHT22;10524;48.132;8.518;2023-02-01T11:09:02;4.50;99.90
20726;DHT22;10524;48.132;8.518;2023-02-01T11:14:19;4.90;99.90
20726;DHT22;10524;48.132;8.518;2023-02-01T11:16:52;5.30;99.90
20726;DHT22;10524;48.132;8.518;2023-02-01T11:19:18;5.10;99.90
20726;DHT22;10524;48.132;8.518;2023-02-01T11:21:44;4.60;99.90
20726;DHT22;10524;48.132;8.518;2023-02-01T11:24:26;4.00;99.90
20726;DHT22;10524;48.132;8.518;2023-02-01T11:27:00;3.80;99.90
20726;DHT22;10524;48.132;8.518;2023-02-01T11:29:35;3.80;99.90
20726;DHT22;10524;48.132;8.518;2023-02-01T11:32:02;4.00;99.90
20726;DHT22;10524;48.132;8.518;2023-02-01T11:34:49;4.10;99.90
20726;DHT22;10524;48.132;8.518;2023-02-01T11:37:32;4.10;99.90
20726;DHT22;10524;48.132;8.518;2023-02-01T11:40:02;4.00;99.90
20726;DHT22;10524;48.132;8.518;2023-02-01T11:42:29;3.90;99.90
20726;DHT22;10524;48.132;8.518;2023-02-01T11:47:44;3.80;99.90
20726;DHT22;10524;48.132;8.518;2023-02-01T11:53:20;3.90;99.90
20726;DHT22;10524;48.132;8.518;2023-02-01T12:01:22;3.30;99.90
20726;DHT22;10524;48.132;8.518;2023-02-01T12:06:49;2.90;99.90
20726;DHT22;10524;48.132;8.518;2023-02-01T12:15:19;2.20;99.90
20726;DHT22;10524;48.132;8.518;2023-02-01T12:21:02;2.50;99.90
20726;DHT22;10524;48.132;8.518;2023-02-01T12:32:28;3.20;99.90
20726;DHT22;10524;48.132;8.518;2023-02-01T12:40:20;3.00;99.90
20726;DHT22;10524;48.132;8.518;2023-02-01T12:43:01;3.60;99.90
20726;DHT22;10524;48.132;8.518;2023-02-01T12:45:41;4.00;99.90
20726;DHT22;10524;48.132;8.518;2023-02-01T12:48:35;6.10;99.90
20726;DHT22;10524;48.132;8.518;2023-02-01T12:51:14;5.60;99.90
20726;DHT22;10524;48.132;8.518;2023-02-01T12:56:09;5.00;99.90
20726;DHT22;10524;48.132;8.518;2023-02-01T12:58:45;4.80;99.90
20726;DHT22;10524;48.132;8.518;2023-02-01T13:01:18;4.70;99.90
20726;DHT22;10524;48.132;8.518;2023-02-01T13:06:50;5.10;99.90
20726;DHT22;10524;48.132;8.518;2023-02-01T13:09:57;4.80;99.90
20726;DHT22;10524;48.132;8.518;2023-02-01T13:12:53;4.50;99.90
20726;DHT22;10524;48.132;8.518;2023-02-01T13:15:27;4.20;99.90
20726;DHT22;10524;48.132;8.518;2023-02-01T13:17:57;4.20;99.90
20726;DHT22;10524;48.132;8.518;2023-02-01T13:20:49;4.10;99.90
20726;DHT22;10524;48.132;8.518;2023-02-01T13:23:30;4.10;99.90
20726;DHT22;10524;48.132;8.518;2023-02-01T13:25:56;4.30;99.90
20726;DHT22;10524;48.132;8.518;2023-02-01T13:28:46;4.10;99.90
20726;DHT22;10524;48.132;8.518;2023-02-01T13:40:38;4.00;99.90
20726;DHT22;10524;48.132;8.518;2023-02-01T13:42:52;3.90;99.90
20726;DHT22;10524;48.132;8.518;2023-02-01T13:45:31;4.00;99.90
20726;DHT22;10524;48.132;8.518;2023-02-01T13:48:00;4.00;99.90
20726;DHT22;10524;48.132;8.518;2023-02-01T13:50:31;4.00;99.90
20726;DHT22;10524;48.132;8.518;2023-02-01T13:53:03;4.00;99.90
20726;DHT22;10524;48.132;8.518;2023-02-01T13:55:38;4.10;99.90
20726;DHT22;10524;48.132;8.518;2023-02-01T14:00:38;4.00;99.90
20726;DHT22;10524;48.132;8.518;2023-02-01T14:03:08;4.00;99.90
20726;DHT22;10524;48.132;8.518;2023-02-01T14:10:54;3.90;99.90
20726;DHT22;10524;48.132;8.518;2023-02-01T14:13:38;3.80;99.90
20726;DHT22;10524;48.132;8.518;2023-02-01T14:21:30;4.00;99.90
20726;DHT22;10524;48.132;8.518;2023-02-01T14:34:23;3.80;99.90
20726;DHT22;10524;48.132;8.518;2023-02-01T14:36:58;3.90;99.90
20726;DHT22;10524;48.132;8.518;2023-02-01T14:39:49;3.90;99.90
20726;DHT22;10524;48.132;8.518;2023-02-01T14:50:48;3.80;99.90
20726;DHT22;10524;48.132;8.518;2023-02-01T14:53:22;3.80;99.90
20726;DHT22;10524;48.132;8.518;2023-02-01T14:56:17;3.60;99.90
20726;DHT22;10524;48.132;8.518;2023-02-01T14:59:12;3.50;99.90
20726;DHT22;10524;48.132;8.518;2023-02-01T15:01:38;3.50;99.90
20726;DHT22;10524;48.132;8.518;2023-02-01T15:04:15;3.60;99.90
20726;DHT22;10524;48.132;8.518;2023-02-01T15:06:49;3.50;99.90
20726;DHT22;10524;48.132;8.518;2023-02-01T15:09:21;3.50;99.90
20726;DHT22;10524;48.132;8.518;2023-02-01T15:14:39;3.30;99.90
20726;DHT22;10524;48.132;8.518;2023-02-01T15:17:29;3.30;99.90
20726;DHT22;10524;48.132;8.518;2023-02-01T15:20:26;3.30;99.90
20726;DHT22;10524;48.132;8.518;2023-02-01T15:22:58;3.30;99.90
20726;DHT22;10524;48.132;8.518;2023-02-01T15:25:31;3.20;99.90
20726;DHT22;10524;48.132;8.518;2023-02-01T15:27:57;3.20;99.90
20726;DHT22;10524;48.132;8.518;2023-02-01T15:30:28;3.30;99.90
20726;DHT22;10524;48.132;8.518;2023-02-01T15:35:44;3.20;99.90
20726;DHT22;10524;48.132;8.518;2023-02-01T15:43:39;3.00;99.90
20726;DHT22;10524;48.132;8.518;2023-02-01T15:46:15;3.00;99.90
20726;DHT22;10524;48.132;8.518;2023-02-01T15:48:52;2.90;99.90
20726;DHT22;10524;48.132;8.518;2023-02-01T15:51:21;2.80;99.90
20726;DHT22;10524;48.132;8.518;2023-02-01T15:53:56;2.80;99.90
20726;DHT22;10524;48.132;8.518;2023-02-01T15:56:25;2.70;99.90
20726;DHT22;10524;48.132;8.518;2023-02-01T15:58:55;2.70;99.90
20726;DHT22;10524;48.132;8.518;2023-02-01T16:01:22;2.60;99.90
20726;DHT22;10524;48.132;8.518;2023-02-01T16:03:48;2.60;99.90
20726;DHT22;10524;48.132;8.518;2023-02-01T16:08:55;2.60;99.90
20726;DHT22;10524;48.132;8.518;2023-02-01T16:11:28;2.60;99.90
20726;DHT22;10524;48.132;8.518;2023-02-01T16:13:59;2.60;99.90
20726;DHT22;10524;48.132;8.518;2023-02-01T16:16:26;2.60;99.90
20726;DHT22;10524;48.132;8.518;2023-02-01T16:18:52;2.60;99.90
20726;DHT22;10524;48.132;8.518;2023-02-01T16:21:18;2.60;99.90
20726;DHT22;10524;48.132;8.518;2023-02-01T16:23:48;2.60;99.90
20726;DHT22;10524;48.132;8.518;2023-02-01T16:26:14;2.60;99.90
20726;DHT22;10524;48.132;8.518;2023-02-01T16:28:40;2.60;99.90
20726;DHT22;10524;48.132;8.518;2023-02-01T16:31:13;2.50;99.90
20726;DHT22;10524;48.132;8.518;2023-02-01T16:33:48;2.50;99.90
20726;DHT22;10524;48.132;8.518;2023-02-01T16:36:14;2.50;99.90
20726;DHT22;10524;48.132;8.518;2023-02-01T16:38:42;2.30;99.90
20726;DHT22;10524;48.132;8.518;2023-02-01T16:41:13;2.20;99.90
20726;DHT22;10524;48.132;8.518;2023-02-01T16:43:39;2.30;99.90
20726;DHT22;10524;48.132;8.518;2023-02-01T16:46:05;2.30;99.90
20726;DHT22;10524;48.132;8.518;2023-02-01T16:48:35;2.30;99.90
20726;DHT22;10524;48.132;8.518;2023-02-01T16:51:04;2.30;99.90
20726;DHT22;10524;48.132;8.518;2023-02-01T16:53:33;2.20;99.90
20726;DHT22;10524;48.132;8.518;2023-02-01T16:55:59;2.20;99.90
20726;DHT22;10524;48.132;8.518;2023-02-01T16:58:25;2.20;99.90
20726;DHT22;10524;48.132;8.518;2023-02-01T17:00:52;2.40;99.90
20726;DHT22;10524;48.132;8.518;2023-02-01T17:03:18;2.40;99.90
20726;DHT22;10524;48.132;8.518;2023-02-01T17:05:49;2.40;99.90
20726;DHT22;10524;48.132;8.518;2023-02-01T17:08:31;2.40;99.90
20726;DHT22;10524;48.132;8.518;2023-02-01T17:10:58;2.50;99.90
20726;DHT22;10524;48.132;8.518;2023-02-01T17:13:23;2.40;99.90
20726;DHT22;10524;48.132;8.518;2023-02-01T17:16:36;2.50;99.90
20726;DHT22;10524;48.132;8.518;2023-02-01T17:18:37;2.50;99.90
20726;DHT22;10524;48.132;8.518;2023-02-01T17:21:03;2.40;99.90
20726;DHT22;10524;48.132;8.518;2023-02-01T17:23:30;2.40;99.90
20726;DHT22;10524;48.132;8.518;2023-02-01T17:25:56;2.30;99.90
20726;DHT22;10524;48.132;8.518;2023-02-01T17:28:22;2.30;99.90
20726;DHT22;10524;48.132;8.518;2023-02-01T17:30:48;2.30;99.90
20726;DHT22;10524;48.132;8.518;2023-02-01T17:33:34;2.30;99.90
20726;DHT22;10524;48.132;8.518;2023-02-01T17:36:03;2.30;99.90
20726;DHT22;10524;48.132;8.518;2023-02-01T17:38:30;2.40;99.90
20726;DHT22;10524;48.132;8.518;2023-02-01T17:40:56;2.40;99.90
20726;DHT22;10524;48.132;8.518;2023-02-01T17:43:23;2.40;99.90
20726;DHT22;10524;48.132;8.518;2023-02-01T17:45:55;2.40;99.90
20726;DHT22;10524;48.132;8.518;2023-02-01T17:48:22;2.40;99.90
20726;DHT22;10524;48.132;8.518;2023-02-01T17:50:49;2.40;99.90
20726;DHT22;10524;48.132;8.518;2023-02-01T17:53:19;2.40;99.90
20726;DHT22;10524;48.132;8.518;2023-02-01T17:55:49;2.40;99.90
20726;DHT22;10524;48.132;8.518;2023-02-01T17:58:16;2.30;99.90
20726;DHT22;10524;48.132;8.518;2023-02-01T18:00:43;2.40;99.90
20726;DHT22;10524;48.132;8.518;2023-02-01T18:03:24;2.40;99.90
20726;DHT22;10524;48.132;8.518;2023-02-01T18:05:52;2.40;99.90
20726;DHT22;10524;48.132;8.518;2023-02-01T18:08:28;2.40;99.90
20726;DHT22;10524;48.132;8.518;2023-02-01T18:10:59;2.40;99.90
20726;DHT22;10524;48.132;8.518;2023-02-01T18:13:26;2.30;99.90
20726;DHT22;10524;48.132;8.518;2023-02-01T18:15:52;2.20;99.90
20726;DHT22;10524;48.132;8.518;2023-02-01T18:18:18;2.10;99.90
20726;DHT22;10524;48.132;8.518;2023-02-01T18:20:44;2.10;99.90
20726;DHT22;10524;48.132;8.518;2023-02-01T18:23:17;2.10;99.90
20726;DHT22;10524;48.132;8.518;2023-02-01T18:25:43;2.20;99.90
20726;DHT22;10524;48.132;8.518;2023-02-01T18:28:14;2.20;99.90
20726;DHT22;10524;48.132;8.518;2023-02-01T18:30:42;2.20;99.90
20726;DHT22;10524;48.132;8.518;2023-02-01T18:33:12;2.30;99.90
20726;DHT22;10524;48.132;8.518;2023-02-01T18:35:38;2.30;99.90
20726;DHT22;10524;48.132;8.518;2023-02-01T18:38:04;2.30;99.90
20726;DHT22;10524;48.132;8.518;2023-02-01T18:40:32;2.30;99.90
20726;DHT22;10524;48.132;8.518;2023-02-01T18:42:59;2.30;99.90
20726;DHT22;10524;48.132;8.518;2023-02-01T18:45:42;2.30;99.90
20726;DHT22;10524;48.132;8.518;2023-02-01T18:48:13;2.30;99.90
20726;DHT22;10524;48.132;8.518;2023-02-01T18:50:40;2.30;99.90